Terminal Aerodrome Forecast
Issued by NWS Sioux Falls, SD

Home | Current Version | Previous Version | Graphics & Text | Print | Product List | Glossary Off
Versions: 1 2 3 4 5 6 7 8 9 10 11 12 13 14

000
FTUS43 KFSD 221203 RRA
TAFFSD
TAF
KFSD 221203Z 2212/2312 20004KT P6SM SKC
     FM221600 19009KT P6SM SKC
     FM230000 15005KT P6SM BKN200
     FM230800 14006KT P6SM BKN080=

USA.gov is the U.S. government's official web portal to all federal, state and local government web resources and services.